createdAt,value
2022-10-21T00:02:09.468Z,100.00
2022-10-21T00:04:39.954Z,100.00
2022-10-21T00:07:12.961Z,100.00
2022-10-21T00:09:45.649Z,100.00
2022-10-21T00:12:12.188Z,100.00
2022-10-21T00:14:42.904Z,100.00
2022-10-21T00:17:09.543Z,100.00
2022-10-21T00:19:39.513Z,100.00
2022-10-21T00:22:11.121Z,100.00
2022-10-21T00:24:39.650Z,100.00
2022-10-21T00:27:06.825Z,100.00
2022-10-21T00:29:43.146Z,100.00
2022-10-21T00:32:09.661Z,100.00
2022-10-21T00:34:46.481Z,100.00
2022-10-21T00:37:30.080Z,100.00
2022-10-21T00:39:58.391Z,100.00
2022-10-21T00:42:31.352Z,100.00
2022-10-21T00:45:05.464Z,100.00
2022-10-21T00:47:54.328Z,100.00
2022-10-21T00:50:42.637Z,100.00
2022-10-21T00:53:14.290Z,100.00
2022-10-21T00:55:45.204Z,100.00
2022-10-21T00:58:22.219Z,100.00
2022-10-21T01:00:58.584Z,100.00
2022-10-21T01:03:38.517Z,100.00
2022-10-21T01:06:08.837Z,100.00
2022-10-21T01:08:38.633Z,100.00
2022-10-21T01:11:14.038Z,100.00
2022-10-21T01:13:40.753Z,100.00
2022-10-21T01:16:14.849Z,100.00
2022-10-21T01:19:02.644Z,100.00
2022-10-21T01:21:38.142Z,100.00
2022-10-21T01:24:23.922Z,100.00
2022-10-21T01:26:55.754Z,100.00
2022-10-21T01:29:41.230Z,100.00
2022-10-21T01:32:23.206Z,100.00
2022-10-21T01:34:59.160Z,100.00
2022-10-21T01:37:55.035Z,100.00
2022-10-21T01:40:26.229Z,100.00
2022-10-21T01:42:57.153Z,100.00
2022-10-21T01:45:40.176Z,100.00
2022-10-21T01:48:21.075Z,100.00
2022-10-21T01:51:01.125Z,100.00
2022-10-21T01:53:41.329Z,100.00
2022-10-21T01:56:12.914Z,100.00
2022-10-21T01:58:41.811Z,100.00
2022-10-21T02:01:10.760Z,100.00
2022-10-21T02:03:46.168Z,100.00
2022-10-21T02:06:19.601Z,100.00
2022-10-21T02:08:50.870Z,100.00
2022-10-21T02:11:21.179Z,100.00
2022-10-21T02:14:09.091Z,100.00
2022-10-21T02:16:49.979Z,100.00
2022-10-21T02:19:22.115Z,100.00
2022-10-21T02:21:52.538Z,100.00
2022-10-21T02:24:25.519Z,100.00
2022-10-21T02:26:59.436Z,100.00
2022-10-21T02:29:32.951Z,100.00
2022-10-21T02:32:07.667Z,100.00
2022-10-21T02:34:43.068Z,100.00
2022-10-21T02:37:36.155Z,100.00
2022-10-21T02:40:09.538Z,100.00
2022-10-21T02:42:39.214Z,100.00
2022-10-21T02:45:18.534Z,100.00
2022-10-21T02:47:47.737Z,100.00
2022-10-21T02:50:17.819Z,100.00
2022-10-21T02:52:54.847Z,100.00
2022-10-21T02:55:21.897Z,100.00
2022-10-21T02:57:56.931Z,100.00
2022-10-21T03:00:32.930Z,100.00
2022-10-21T03:02:59.931Z,100.00
2022-10-21T03:05:42.388Z,100.00
2022-10-21T03:08:12.417Z,100.00
2022-10-21T03:10:39.908Z,100.00
2022-10-21T03:13:15.109Z,100.00
2022-10-21T03:15:44.765Z,100.00
2022-10-21T03:18:11.739Z,100.00
2022-10-21T03:20:58.477Z,100.00
2022-10-21T03:23:26.656Z,100.00
2022-10-21T03:25:53.377Z,100.00
2022-10-21T03:28:23.887Z,100.00
2022-10-21T03:30:52.275Z,100.00
2022-10-21T03:33:19.514Z,100.00
2022-10-21T03:35:48.495Z,100.00
2022-10-21T03:38:18.379Z,100.00
2022-10-21T03:40:46.122Z,100.00
2022-10-21T03:43:24.739Z,100.00
2022-10-21T03:45:55.555Z,100.00
2022-10-21T03:48:22.694Z,100.00
2022-10-21T03:50:52.010Z,100.00
2022-10-21T03:53:38.306Z,100.00
2022-10-21T03:56:05.263Z,100.00
2022-10-21T03:58:34.778Z,100.00
2022-10-21T04:01:01.550Z,100.00
2022-10-21T04:03:28.812Z,100.00
2022-10-21T04:06:01.942Z,100.00
2022-10-21T04:08:28.861Z,100.00
2022-10-21T04:10:58.600Z,100.00
2022-10-21T04:13:25.361Z,100.00
2022-10-21T04:15:56.951Z,100.00
2022-10-21T04:18:23.507Z,100.00
2022-10-21T04:20:50.144Z,100.00
2022-10-21T04:23:17.341Z,100.00
2022-10-21T04:25:44.188Z,100.00
2022-10-21T04:28:14.174Z,100.00
2022-10-21T04:30:40.812Z,100.00
2022-10-21T04:33:07.286Z,100.00
2022-10-21T04:35:33.747Z,100.00
2022-10-21T04:38:01.518Z,100.00
2022-10-21T04:40:27.985Z,100.00
2022-10-21T04:42:54.615Z,100.00
2022-10-21T04:45:21.204Z,100.00
2022-10-21T04:47:47.721Z,100.00
2022-10-21T04:50:14.901Z,100.00
2022-10-21T04:52:41.840Z,100.00
2022-10-21T04:55:08.532Z,100.00
2022-10-21T04:57:35.284Z,100.00
2022-10-21T05:00:03.125Z,100.00
2022-10-21T05:02:29.729Z,100.00
2022-10-21T05:04:56.564Z,100.00
2022-10-21T05:07:23.189Z,100.00
2022-10-21T05:09:49.810Z,100.00
2022-10-21T05:12:16.405Z,100.00
2022-10-21T05:14:42.917Z,100.00
2022-10-21T05:17:11.596Z,100.00
2022-10-21T05:19:38.174Z,100.00
2022-10-21T05:22:04.729Z,100.00
2022-10-21T05:24:31.267Z,100.00
2022-10-21T05:26:57.849Z,100.00
2022-10-21T05:29:24.539Z,100.00
2022-10-21T05:31:51.293Z,100.00
2022-10-21T05:34:17.898Z,100.00
2022-10-21T05:36:44.468Z,100.00
2022-10-21T05:39:11.091Z,100.00
2022-10-21T05:41:38.151Z,100.00
2022-10-21T05:44:05.296Z,100.00
2022-10-21T05:46:31.993Z,100.00
2022-10-21T05:48:58.690Z,100.00
2022-10-21T05:51:26.226Z,100.00
2022-10-21T05:53:53.293Z,100.00
2022-10-21T05:56:20.537Z,100.00
2022-10-21T05:58:47.472Z,100.00
2022-10-21T06:01:14.625Z,100.00
2022-10-21T06:03:41.318Z,100.00
2022-10-21T06:06:09.026Z,100.00
2022-10-21T06:08:38.540Z,100.00
2022-10-21T06:11:06.506Z,100.00
2022-10-21T06:13:37.658Z,100.00
2022-10-21T06:16:07.086Z,100.00
2022-10-21T06:18:38.950Z,100.00
2022-10-21T06:21:06.254Z,100.00
2022-10-21T06:23:33.303Z,100.00
2022-10-21T06:26:01.328Z,100.00
2022-10-21T06:28:29.039Z,100.00
2022-10-21T06:30:55.917Z,100.00
2022-10-21T06:33:26.236Z,100.00
2022-10-21T06:35:54.523Z,100.00
2022-10-21T06:38:21.357Z,100.00
2022-10-21T06:40:48.291Z,100.00
2022-10-21T06:43:15.619Z,100.00
2022-10-21T06:45:43.617Z,100.00
2022-10-21T06:48:14.381Z,100.00
2022-10-21T06:50:41.195Z,100.00
2022-10-21T06:53:07.821Z,100.00
2022-10-21T06:55:34.772Z,100.00
2022-10-21T06:58:01.602Z,100.00
2022-10-21T07:03:07.922Z,100.00
2022-10-21T07:05:34.901Z,100.00
2022-10-21T07:08:04.965Z,100.00
2022-10-21T07:10:35.939Z,100.00
2022-10-21T07:13:05.151Z,100.00
2022-10-21T07:15:32.487Z,100.00
2022-10-21T07:18:00.495Z,100.00
2022-10-21T07:20:27.181Z,100.00
2022-10-21T07:22:53.963Z,100.00
2022-10-21T07:25:21.770Z,100.00
2022-10-21T07:27:49.328Z,100.00
2022-10-21T07:30:16.716Z,100.00
2022-10-21T07:32:44.533Z,100.00
2022-10-21T07:35:13.193Z,100.00
2022-10-21T07:37:40.244Z,100.00
2022-10-21T07:40:08.916Z,100.00
2022-10-21T07:42:36.906Z,100.00
2022-10-21T07:45:13.216Z,100.00
2022-10-21T07:47:40.303Z,100.00
2022-10-21T07:50:10.058Z,100.00
2022-10-21T07:52:51.827Z,100.00
2022-10-21T07:55:30.427Z,100.00
2022-10-21T07:57:57.880Z,100.00
2022-10-21T08:00:24.705Z,100.00
2022-10-21T08:02:54.946Z,100.00
2022-10-21T08:05:25.127Z,100.00
2022-10-21T08:07:52.669Z,100.00
2022-10-21T08:10:20.646Z,100.00
2022-10-21T08:12:49.758Z,100.00
2022-10-21T08:15:18.896Z,100.00
2022-10-21T08:17:52.021Z,100.00
2022-10-21T08:20:18.757Z,100.00
2022-10-21T08:22:45.649Z,100.00
2022-10-21T08:25:25.933Z,100.00
2022-10-21T08:27:54.512Z,100.00
2022-10-21T08:30:35.821Z,100.00
2022-10-21T08:33:16.108Z,100.00
2022-10-21T08:35:58.453Z,100.00
2022-10-21T08:38:25.472Z,100.00
2022-10-21T08:40:55.609Z,100.00
2022-10-21T08:43:34.569Z,100.00
2022-10-21T08:46:14.311Z,100.00
2022-10-21T08:48:44.550Z,100.00
2022-10-21T08:51:38.988Z,100.00
2022-10-21T08:54:13.649Z,100.00
2022-10-21T08:57:09.791Z,100.00
2022-10-21T08:59:39.074Z,100.00
2022-10-21T09:02:12.621Z,100.00
2022-10-21T09:05:07.393Z,100.00
2022-10-21T09:07:38.838Z,100.00
2022-10-21T09:10:22.680Z,100.00
2022-10-21T09:13:13.836Z,100.00
2022-10-21T09:15:59.076Z,100.00
2022-10-21T09:18:33.299Z,100.00
2022-10-21T09:21:22.698Z,100.00
2022-10-21T09:24:00.598Z,100.00
2022-10-21T09:26:48.341Z,100.00
2022-10-21T09:29:23.538Z,100.00
2022-10-21T09:32:20.906Z,100.00
2022-10-21T09:35:16.344Z,100.00
2022-10-21T09:37:50.373Z,99.79
2022-10-21T09:40:29.094Z,98.65
2022-10-21T09:43:02.278Z,97.05
2022-10-21T09:45:39.600Z,96.10
2022-10-21T09:48:11.674Z,96.04
2022-10-21T09:50:40.242Z,94.71
2022-10-21T09:53:16.416Z,94.22
2022-10-21T09:55:50.879Z,92.97
2022-10-21T09:58:30.820Z,89.80
2022-10-21T10:01:01.348Z,90.66
2022-10-21T10:03:43.814Z,92.08
2022-10-21T10:06:29.482Z,86.72
2022-10-21T10:09:16.623Z,85.26
2022-10-21T10:11:55.222Z,86.04
2022-10-21T10:14:31.473Z,86.24
2022-10-21T10:17:18.811Z,85.46
2022-10-21T10:20:04.194Z,85.42
2022-10-21T10:22:46.529Z,85.06
2022-10-21T10:25:14.346Z,84.30
2022-10-21T10:27:50.466Z,84.82
2022-10-21T10:30:18.424Z,82.14
2022-10-21T10:32:54.054Z,81.55
2022-10-21T10:35:31.108Z,80.87
2022-10-21T10:38:00.971Z,78.78
2022-10-21T10:40:42.092Z,78.58
2022-10-21T10:43:35.624Z,76.87
2022-10-21T10:46:18.724Z,76.33
2022-10-21T10:48:48.786Z,76.97
2022-10-21T10:51:28.485Z,77.21
2022-10-21T10:54:06.998Z,77.32
2022-10-21T10:56:49.144Z,74.43
2022-10-21T10:59:28.548Z,75.95
2022-10-21T11:02:16.609Z,75.21
2022-10-21T11:04:55.827Z,74.16
2022-10-21T11:07:31.598Z,72.84
2022-10-21T11:10:02.395Z,72.05
2022-10-21T11:12:32.651Z,71.90
2022-10-21T11:15:00.892Z,69.70
2022-10-21T11:17:38.586Z,69.97
2022-10-21T11:20:12.046Z,69.98
2022-10-21T11:22:39.031Z,69.35
2022-10-21T11:25:08.869Z,69.01
2022-10-21T11:27:47.307Z,67.06
2022-10-21T11:30:19.440Z,67.96
2022-10-21T11:32:49.710Z,70.28
2022-10-21T11:35:16.601Z,70.28
2022-10-21T11:37:56.172Z,64.91
2022-10-21T11:40:44.099Z,63.84
2022-10-21T11:43:24.478Z,66.53
2022-10-21T11:46:08.729Z,65.63
2022-10-21T11:48:35.489Z,63.78
2022-10-21T11:51:17.462Z,61.53
2022-10-21T11:53:55.724Z,60.64
2022-10-21T11:56:28.247Z,59.94
2022-10-21T11:59:07.418Z,60.82
2022-10-21T12:01:34.415Z,59.37
2022-10-21T12:04:32.822Z,57.34
2022-10-21T12:07:11.256Z,57.15
2022-10-21T12:10:01.131Z,58.29
2022-10-21T12:12:33.699Z,57.46
2022-10-21T12:15:02.798Z,55.34
2022-10-21T12:20:26.380Z,54.50
2022-10-21T12:22:58.745Z,53.51
2022-10-21T12:25:48.841Z,54.45
2022-10-21T12:28:18.473Z,53.62
2022-10-21T12:30:52.792Z,51.67
2022-10-21T12:33:29.050Z,51.79
2022-10-21T12:36:13.817Z,51.41
2022-10-21T12:38:58.927Z,52.22
2022-10-21T12:41:39.138Z,52.48
2022-10-21T12:44:07.260Z,48.69
2022-10-21T12:46:39.162Z,50.02
2022-10-21T12:49:26.296Z,48.95
2022-10-21T12:51:53.045Z,48.15
2022-10-21T12:54:24.325Z,47.94
2022-10-21T12:57:01.506Z,46.51
2022-10-21T12:59:39.362Z,47.24
2022-10-21T13:02:27.971Z,47.22
2022-10-21T13:04:58.893Z,46.59
2022-10-21T13:07:25.668Z,44.86
2022-10-21T13:09:53.404Z,44.94
2022-10-21T13:12:23.304Z,42.22
2022-10-21T13:14:51.064Z,41.48
2022-10-21T13:17:27.637Z,40.84
2022-10-21T13:20:08.092Z,40.88
2022-10-21T13:22:36.934Z,38.94
2022-10-21T13:25:18.834Z,37.97
2022-10-21T13:27:51.213Z,37.88
2022-10-21T13:30:29.013Z,37.19
2022-10-21T13:33:02.897Z,36.12
2022-10-21T13:35:50.083Z,35.46
2022-10-21T13:38:19.118Z,34.47
2022-10-21T13:40:48.246Z,33.05
2022-10-21T13:43:16.982Z,33.91
2022-10-21T13:45:49.202Z,33.98
2022-10-21T13:48:21.199Z,33.36
2022-10-21T13:50:49.540Z,33.25
2022-10-21T13:53:19.358Z,32.93
2022-10-21T13:55:55.079Z,32.26
2022-10-21T13:58:22.840Z,32.94
2022-10-21T14:00:57.814Z,32.77
2022-10-21T14:03:27.452Z,32.75
2022-10-21T14:06:01.196Z,32.44
2022-10-21T14:08:33.931Z,32.81
2022-10-21T14:11:02.902Z,33.75
2022-10-21T14:13:35.389Z,33.81
2022-10-21T14:16:06.276Z,34.28
2022-10-21T14:18:37.272Z,34.19
2022-10-21T14:21:06.214Z,33.77
2022-10-21T14:23:34.199Z,33.13
2022-10-21T14:26:08.130Z,32.42
2022-10-21T14:28:39.464Z,33.93
2022-10-21T14:31:13.909Z,33.89
2022-10-21T14:33:42.873Z,33.53
2022-10-21T14:36:20.715Z,33.23
2022-10-21T14:39:00.666Z,32.20
2022-10-21T14:41:44.057Z,34.11
2022-10-21T14:44:17.427Z,34.53
2022-10-21T14:46:47.258Z,34.71
2022-10-21T14:49:25.148Z,35.31
2022-10-21T14:52:02.782Z,35.70
2022-10-21T14:54:44.506Z,36.50
2022-10-21T14:57:35.653Z,37.10
2022-10-21T15:00:04.035Z,37.69
2022-10-21T15:02:37.155Z,38.14
2022-10-21T15:05:25.499Z,38.74
2022-10-21T15:08:12.816Z,39.46
2022-10-21T15:10:39.997Z,40.19
2022-10-21T15:13:19.598Z,40.59
2022-10-21T15:15:53.254Z,41.04
2022-10-21T15:18:22.749Z,41.71
2022-10-21T15:20:52.729Z,42.45
2022-10-21T15:23:33.133Z,42.89
2022-10-21T15:26:07.275Z,43.46
2022-10-21T15:28:34.867Z,44.15
2022-10-21T15:31:02.225Z,44.88
2022-10-21T15:33:31.051Z,45.69
2022-10-21T15:36:05.438Z,46.23
2022-10-21T15:38:32.297Z,46.67
2022-10-21T15:40:59.238Z,47.19
2022-10-21T15:43:25.830Z,48.34
2022-10-21T15:45:54.567Z,49.45
2022-10-21T15:48:23.787Z,49.99
2022-10-21T15:50:56.567Z,50.27
2022-10-21T15:53:23.378Z,52.30
2022-10-21T15:55:57.250Z,51.90
2022-10-21T15:58:23.963Z,53.64
2022-10-21T16:00:50.633Z,54.83
2022-10-21T16:03:19.886Z,54.89
2022-10-21T16:05:50.771Z,56.97
2022-10-21T16:08:20.120Z,58.25
2022-10-21T16:10:47.539Z,59.34
2022-10-21T16:13:16.929Z,60.64
2022-10-21T16:15:43.716Z,60.70
2022-10-21T16:18:12.821Z,64.19
2022-10-21T16:20:40.595Z,64.67
2022-10-21T16:23:09.984Z,65.40
2022-10-21T16:25:36.691Z,66.77
2022-10-21T16:28:04.506Z,66.80
2022-10-21T16:30:47.572Z,69.17
2022-10-21T16:33:16.887Z,68.24
2022-10-21T16:35:50.987Z,69.09
2022-10-21T16:38:17.780Z,71.06
2022-10-21T16:40:48.859Z,71.19
2022-10-21T16:43:15.857Z,73.98
2022-10-21T16:45:44.061Z,72.97
2022-10-21T16:48:13.720Z,74.47
2022-10-21T16:50:53.129Z,76.13
2022-10-21T16:53:25.792Z,78.38
2022-10-21T16:55:52.781Z,79.64
2022-10-21T16:58:21.413Z,82.10
2022-10-21T17:00:52.096Z,80.93
2022-10-21T17:03:23.193Z,82.92
2022-10-21T17:05:54.736Z,82.51
2022-10-21T17:08:21.491Z,80.94
2022-10-21T17:10:49.552Z,82.79
2022-10-21T17:13:16.161Z,84.99
2022-10-21T17:15:43.487Z,84.50
2022-10-21T17:18:22.213Z,82.82
2022-10-21T17:20:50.445Z,83.25
2022-10-21T17:23:20.016Z,83.32
2022-10-21T17:25:46.725Z,85.39
2022-10-21T17:28:22.277Z,84.72
2022-10-21T17:30:49.271Z,86.25
2022-10-21T17:33:16.056Z,85.97
2022-10-21T17:35:46.490Z,87.47
2022-10-21T17:38:15.330Z,86.51
2022-10-21T17:40:44.424Z,86.35
2022-10-21T17:43:13.802Z,88.47
2022-10-21T17:45:40.928Z,88.66
2022-10-21T17:48:11.482Z,89.53
2022-10-21T17:50:43.595Z,89.76
2022-10-21T17:53:10.747Z,88.64
2022-10-21T17:55:37.340Z,90.18
2022-10-21T17:58:04.234Z,88.68
2022-10-21T18:00:44.506Z,88.48
2022-10-21T18:03:11.669Z,87.98
2022-10-21T18:05:40.460Z,88.55
2022-10-21T18:08:07.255Z,89.03
2022-10-21T18:10:34.116Z,86.85
2022-10-21T18:13:03.920Z,86.30
2022-10-21T18:15:37.268Z,86.94
2022-10-21T18:18:05.341Z,85.93
2022-10-21T18:20:35.563Z,84.91
2022-10-21T18:23:02.304Z,85.90
2022-10-21T18:25:28.985Z,85.88
2022-10-21T18:27:55.684Z,86.65
2022-10-21T18:30:23.659Z,88.27
2022-10-21T18:32:50.312Z,85.98
2022-10-21T18:35:20.744Z,86.01
2022-10-21T18:37:47.870Z,87.03
2022-10-21T18:40:14.719Z,86.82
2022-10-21T18:42:41.799Z,85.72
2022-10-21T18:45:08.910Z,85.82
2022-10-21T18:47:42.489Z,86.08
2022-10-21T18:52:54.440Z,87.44
2022-10-21T18:55:21.020Z,87.01
2022-10-21T18:57:47.793Z,88.10
2022-10-21T19:00:14.924Z,88.46
2022-10-21T19:02:42.839Z,87.92
2022-10-21T19:05:13.381Z,89.41
2022-10-21T19:07:42.433Z,89.26
2022-10-21T19:10:09.432Z,88.46
2022-10-21T19:12:36.388Z,87.60
2022-10-21T19:15:06.986Z,86.66
2022-10-21T19:17:34.596Z,85.50
2022-10-21T19:20:03.153Z,84.34
2022-10-21T19:22:32.384Z,83.90
2022-10-21T19:24:59.196Z,82.32
2022-10-21T19:27:25.917Z,81.65
2022-10-21T19:29:52.788Z,79.94
2022-10-21T19:32:21.934Z,79.58
2022-10-21T19:34:51.794Z,78.58
2022-10-21T19:37:18.948Z,77.17
2022-10-21T19:39:45.663Z,76.61
2022-10-21T19:42:12.506Z,76.60
2022-10-21T19:44:45.259Z,76.89
2022-10-21T19:47:14.488Z,76.97
2022-10-21T19:49:49.470Z,76.80
2022-10-21T19:52:16.247Z,76.03
2022-10-21T19:54:43.039Z,75.92
2022-10-21T19:57:09.626Z,75.24
2022-10-21T19:59:36.931Z,75.22
2022-10-21T20:02:03.815Z,75.05
2022-10-21T20:04:33.870Z,75.93
2022-10-21T20:07:02.263Z,75.99
2022-10-21T20:09:36.351Z,75.78
2022-10-21T20:12:08.032Z,75.83
2022-10-21T20:14:35.259Z,75.16
2022-10-21T20:17:02.204Z,74.91
2022-10-21T20:19:32.118Z,74.83
2022-10-21T20:21:59.042Z,74.93
2022-10-21T20:24:27.400Z,74.90
2022-10-21T20:26:58.217Z,74.67
2022-10-21T20:29:26.748Z,75.26
2022-10-21T20:31:54.773Z,76.11
2022-10-21T20:34:21.712Z,76.20
2022-10-21T20:36:51.381Z,76.93
2022-10-21T20:39:20.238Z,77.12
2022-10-21T20:41:46.970Z,77.66
2022-10-21T20:44:17.757Z,77.12
2022-10-21T20:46:45.093Z,77.05
2022-10-21T20:49:12.316Z,77.76
2022-10-21T20:51:42.834Z,77.87
2022-10-21T20:54:22.144Z,78.69
2022-10-21T20:56:53.583Z,79.15
2022-10-21T20:59:22.757Z,78.91
2022-10-21T21:01:49.680Z,79.55
2022-10-21T21:04:20.166Z,79.13
2022-10-21T21:06:48.811Z,79.80
2022-10-21T21:12:04.088Z,80.46
2022-10-21T21:14:32.086Z,80.20
2022-10-21T21:16:58.923Z,79.98
2022-10-21T21:19:33.035Z,80.40
2022-10-21T21:22:01.582Z,79.95
2022-10-21T21:24:30.216Z,79.99
2022-10-21T21:26:57.088Z,80.06
2022-10-21T21:29:26.966Z,80.06
2022-10-21T21:31:53.975Z,79.89
2022-10-21T21:34:23.162Z,79.75
2022-10-21T21:36:52.827Z,79.72
2022-10-21T21:39:19.782Z,81.16
2022-10-21T21:41:46.732Z,82.26
2022-10-21T21:44:13.606Z,82.58
2022-10-21T21:46:43.828Z,83.05
2022-10-21T21:49:11.094Z,82.87
2022-10-21T21:51:37.918Z,82.74
2022-10-21T21:54:06.222Z,82.21
2022-10-21T21:56:38.358Z,81.73
2022-10-21T21:59:08.552Z,81.82
2022-10-21T22:01:35.350Z,82.48
2022-10-21T22:04:02.137Z,82.85
2022-10-21T22:06:30.819Z,83.33
2022-10-21T22:09:00.397Z,83.33
2022-10-21T22:11:28.920Z,82.76
2022-10-21T22:14:04.098Z,83.52
2022-10-21T22:16:30.838Z,83.90
2022-10-21T22:19:00.645Z,84.12
2022-10-21T22:21:30.015Z,85.17
2022-10-21T22:23:57.064Z,87.21
2022-10-21T22:26:26.050Z,86.59
2022-10-21T22:28:53.960Z,87.92
2022-10-21T22:31:25.765Z,90.24
2022-10-21T22:33:56.013Z,90.92
2022-10-21T22:36:22.765Z,88.03
2022-10-21T22:38:49.961Z,88.45
2022-10-21T22:41:17.278Z,89.24
2022-10-21T22:43:45.408Z,89.86
2022-10-21T22:46:33.586Z,89.99
2022-10-21T22:49:02.156Z,91.22
2022-10-21T22:51:32.253Z,92.99
2022-10-21T22:54:01.158Z,93.51
2022-10-21T22:56:31.619Z,95.37
2022-10-21T22:58:58.439Z,96.27
2022-10-21T23:01:29.717Z,95.88
2022-10-21T23:04:02.409Z,96.18
2022-10-21T23:06:33.463Z,94.61
2022-10-21T23:09:03.699Z,96.29
2022-10-21T23:11:30.687Z,97.56
2022-10-21T23:14:08.351Z,99.91
2022-10-21T23:16:39.246Z,98.51
2022-10-21T23:19:07.170Z,98.39
2022-10-21T23:21:34.879Z,100.00
2022-10-21T23:24:07.100Z,100.00
2022-10-21T23:26:36.345Z,100.00
2022-10-21T23:29:03.111Z,100.00
2022-10-21T23:31:30.061Z,100.00
2022-10-21T23:33:57.129Z,100.00
2022-10-21T23:36:29.969Z,100.00
2022-10-21T23:39:01.165Z,100.00
2022-10-21T23:41:27.992Z,100.00
2022-10-21T23:43:54.709Z,100.00
2022-10-21T23:46:22.242Z,100.00
2022-10-21T23:48:50.169Z,100.00
2022-10-21T23:51:16.974Z,100.00
2022-10-21T23:53:43.620Z,100.00
2022-10-21T23:56:10.424Z,100.00
2022-10-21T23:58:37.173Z,100.00
